Terminal Aerodrome Forecast
Issued by NWS Cleveland, OH

Home | Current Version | Previous Version | Text Only | Print | Product List | Glossary Off
Versions: 1 2 3 4 5 6 7 8 9 10 11 12 13 14

249
FTUS41 KCLE 281726
TAFTOL
TAF
KTOL 281726Z 2818/2918 06014G22KT P6SM SCT015 OVC025
     FM290100 03013KT P6SM VCSH BKN007 OVC015
     FM290900 36004KT 2SM -DZ BR OVC003
     FM291500 02005KT P6SM SCT008 OVC015=

USA.gov is the U.S. government's official web portal to all federal, state and local government web resources and services.